Latest Weather Observations for Double Island Point

IDQ60801

Issued at 9:52 pm EST Friday 7 October 2022 (issued every 10 minutes, with the page automatically refreshed every 10 minutes)

About weather observations | Map of weather stations | Latest weather observations for QLD | Other Formats
Station Details ID: 040068 Name: DOUBLE ISLAND POINT LIGHTHOUSE Lat: -25.93 Lon: 153.19 Height: 95.64 m
Data from the previous 72 hours. | See also: Recent months at Double Island Point
Date/Time
EST
Temp
°C
App
Temp
°C
Dew
Point
°C
Rel
Hum
%
Delta-T
°C
Wind Press
QNH
hPa
Press
MSL
hPa
Rain since
9am
mm
Dir  Spd
km/h
Gust
km/h
Spd
kts
Gust
kts
07/09:30pm 20.0 17.7 15.8 77 2.5 ENE 22 26 12 14 1019.5 1019.1 0.0
07/09:00pm 20.1 17.7 15.5 75 2.7 ENE 22 28 12 15 1019.9 1019.6 0.0
07/08:30pm 20.2 17.9 15.8 76 2.6 ENE 22 30 12 16 1019.8 1019.4 0.0
07/08:00pm 20.2 18.0 15.0 72 3.1 ENE 20 26 11 14 1019.8 1019.4 0.0
07/07:30pm 20.2 17.3 15.2 73 3.0 ENE 24 30 13 16 1019.3 1018.9 0.0
07/07:00pm 20.4 18.4 15.4 73 3.0 ENE 20 26 11 14 1019.2 1018.8 0.0
07/06:30pm 20.4 18.0 15.4 73 3.0 ENE 22 30 12 16 1018.9 1018.5 0.0
07/06:00pm 20.6 19.2 15.6 73 3.0 ENE 17 24 9 13 1018.7 1018.3 0.0
07/05:30pm 20.8 19.0 15.6 72 3.1 NE 19 22 10 12 1018.4 1018.0 0.0
07/05:00pm 21.0 19.1 15.8 72 3.1 ENE 20 24 11 13 1018.0 1017.6 0.0
07/04:30pm 21.3 19.6 15.8 71 3.3 ENE 19 22 10 12 1017.8 1017.4 0.0
07/04:00pm 21.6 20.3 15.9 70 3.4 ENE 17 22 9 12 1017.9 1017.5 0.0
07/03:30pm 21.8 20.5 15.9 69 3.6 ENE 17 24 9 13 1017.8 1017.4 0.0
07/03:00pm 22.9 22.3 14.7 60 4.9 NE 11 17 6 9 1018.0 1017.6 0.0
07/02:30pm 24.2 24.1 15.9 59 5.1 NE 11 20 6 11 1018.3 1017.9 0.0
07/02:00pm 23.8 23.3 14.8 57 5.4 ENE 11 17 6 9 1018.6 1018.2 0.0
07/01:30pm 23.5 22.2 15.8 62 4.7 NE 17 24 9 13 1018.7 1018.3 0.0
07/01:00pm 23.5 22.3 15.0 59 5.1 NE 15 20 8 11 1019.0 1018.6 0.0
07/12:30pm 23.4 22.1 15.7 62 4.7 ENE 17 24 9 13 1019.1 1018.7 0.0
07/12:00pm 22.3 19.2 14.4 61 4.6 ENE 24 28 13 15 1019.4 1019.0 0.0
07/11:30am 23.9 21.8 16.2 62 4.7 E 22 26 12 14 1019.8 1019.4 0.0
07/11:00am 23.3 19.4 16.4 65 4.2 E 32 35 17 19 1020.3 1020.0 0.0
07/10:30am 24.1 21.9 14.8 56 5.6 E 20 24 11 13 1021.1 1020.8 0.0
07/10:00am 24.0 21.3 14.7 56 5.5 E 22 26 12 14 1021.4 1021.1 0.0
07/09:30am 23.5 20.3 14.2 56 5.5 E 24 30 13 16 1021.3 1021.0 0.0
07/09:00am 23.6 19.9 15.1 59 5.1 E 28 32 15 17 1021.3 1021.0 0.0
07/08:30am 21.6 17.8 14.7 65 4.1 E 28 33 15 18 1020.9 1020.6 0.0
07/08:00am 20.7 20.3 16.1 75 2.8 E 13 19 7 10 1020.8 1020.5 0.0
07/07:30am 22.0 21.4 16.7 72 3.2 E 15 19 8 10 1020.6 1020.3 0.0
07/07:00am 20.7 19.8 15.9 74 2.9 ENE 15 20 8 11 1020.4 1020.1 0.0
07/06:30am 19.8 17.3 15.2 75 2.7 ENE 22 28 12 15 1020.1 1019.8 0.0
07/06:00am 19.5 18.0 15.2 76 2.5 E 17 20 9 11 1019.9 1019.6 0.0
07/05:30am 18.9 17.5 14.4 75 2.6 E 15 17 8 9 1019.5 1019.1 0.0
07/05:00am 19.1 18.0 14.4 74 2.7 ENE 13 20 7 11 1019.4 1019.0 0.0
07/04:30am 19.5 17.0 14.1 71 3.1 E 20 24 11 13 1019.3 1018.9 0.0
07/04:00am 19.1 17.0 13.7 71 3.1 E 17 20 9 11 1019.2 1018.8 0.0
07/03:30am 19.2 16.9 14.0 72 3.0 ENE 19 24 10 13 1019.1 1018.7 0.0
07/03:00am 19.4 16.9 14.0 71 3.1 ENE 20 24 11 13 1019.3 1018.9 0.0
07/02:30am 19.2 16.7 14.0 72 3.0 E 20 26 11 14 1019.5 1019.1 0.0
07/02:00am 19.2 16.7 14.0 72 3.0 E 20 26 11 14 1019.6 1019.2 0.0
07/01:30am 19.3 16.0 14.1 72 3.0 E 24 28 13 15 1019.9 1019.6 0.0
07/01:00am 19.6 16.0 14.2 71 3.1 ENE 26 30 14 16 1020.1 1019.8 0.0
07/12:30am 19.6 16.1 14.6 73 2.9 E 26 32 14 17 1020.4 1020.1 0.0
07/12:00am 19.4 16.6 15.3 77 2.4 ENE 24 28 13 15 1020.8 1020.5 0.0
 
Date/Time
EST
Temp
°C
App
Temp
°C
Dew
Point
°C
Rel
Hum
%
Delta-T
°C
Wind Press
QNH
hPa
Press
MSL
hPa
Rain since
9am
mm
Dir  Spd
km/h
Gust
km/h
Spd
kts
Gust
kts
06/11:30pm 19.7 16.0 14.9 74 2.8 E 28 33 15 18 1021.0 1020.7 0.0
06/11:00pm 19.6 15.3 14.4 72 3.0 E 30 33 16 18 1021.3 1021.0 0.0
06/10:30pm 19.8 16.3 14.6 72 3.0 E 26 30 14 16 1021.3 1021.0 0.0
06/10:00pm 19.9 16.1 13.6 67 3.6 E 26 32 14 17 1021.6 1021.3 0.0
06/09:30pm 19.9 16.2 14.0 69 3.4 ENE 26 32 14 17 1021.9 1021.6 0.0
06/09:00pm 20.0 16.1 14.4 70 3.3 E 28 32 15 17 1022.1 1021.8 0.0
06/08:30pm 19.5 16.4 14.5 73 2.9 ENE 24 32 13 17 1022.0 1021.7 0.0
06/08:00pm 19.8 16.3 14.4 71 3.1 E 26 30 14 16 1021.8 1021.5 0.0
06/07:30pm 20.0 16.5 14.6 71 3.2 E 26 30 14 16 1021.4 1021.1 0.0
06/07:00pm 20.1 17.1 14.9 72 3.1 E 24 30 13 16 1021.1 1020.8 0.0
06/06:30pm 19.9 16.5 14.7 72 3.0 E 26 28 14 15 1020.6 1020.3 0.0
06/06:00pm 19.9 16.2 14.9 73 2.9 E 28 32 15 17 1020.3 1020.0 0.0
06/05:30pm 19.9 18.1 15.5 76 2.6 E 19 22 10 12 1020.1 1019.8 0.0
06/05:00pm 20.3 18.4 15.3 73 3.0 ENE 19 22 10 12 1019.8 1019.4 0.0
06/04:30pm 20.4 18.0 15.4 73 3.0 ENE 22 28 12 15 1019.4 1019.0 0.0
06/04:00pm 20.8 18.6 16.0 74 2.9 ENE 22 30 12 16 1019.4 1019.0 0.0
06/03:30pm 21.6 18.7 15.2 67 3.8 ENE 24 28 13 15 1019.3 1018.9 0.0
06/03:00pm 21.3 18.9 15.4 69 3.5 E 22 28 12 15 1019.4 1019.0 0.0
06/02:30pm 22.3 20.3 14.9 63 4.4 ENE 19 22 10 12 1019.6 1019.2 0.0
06/02:00pm 22.6 21.3 14.7 61 4.7 ENE 15 20 8 11 1020.1 1019.8 0.0
06/01:30pm 23.1 21.2 15.2 61 4.7 E 19 22 10 12 1020.3 1020.0 0.0
06/01:00pm 23.4 21.6 15.5 61 4.8 E 19 22 10 12 1020.7 1020.4 0.0
06/12:30pm 23.2 21.6 16.0 64 4.4 ENE 19 22 10 12 1021.0 1020.7 0.0
06/12:00pm 24.0 22.3 15.8 60 5.0 ENE 19 22 10 12 1021.3 1021.0 0.0
06/11:30am 25.2 24.0 16.1 57 5.6 E 17 22 9 12 1021.7 1021.4 0.0
06/11:00am 24.5 22.9 14.9 55 5.7 E 17 20 9 11 1022.1 1021.8 0.0
06/10:30am 24.7 23.6 15.3 56 5.7 E 15 19 8 10 1022.3 1022.0 0.0
06/10:00am 24.5 22.9 14.9 55 5.7 E 17 20 9 11 1022.2 1021.9 0.0
06/09:30am 22.8 22.1 15.4 63 4.4 E 13 15 7 8 1022.2 1021.9 0.0
06/09:00am 21.4 20.5 14.8 66 3.9 ENE 13 19 7 10 1022.3 1022.0 0.0
06/08:30am 20.6 17.3 14.0 66 3.8 ENE 24 32 13 17 1022.4 1022.1 0.0
06/08:00am 22.2 20.1 14.6 62 4.5 ENE 19 22 10 12 1022.1 1021.8 0.0
06/07:30am 21.9 19.5 14.3 62 4.5 E 20 24 11 13 1022.1 1021.8 0.0
06/07:00am 20.2 17.8 14.3 69 3.4 ENE 20 26 11 14 1022.0 1021.7 0.0
06/06:30am 19.9 17.5 14.5 71 3.2 E 20 24 11 13 1021.8 1021.5 0.0
06/06:00am 19.6 17.6 14.0 70 3.2 ENE 17 22 9 12 1021.5 1021.2 0.0
06/05:30am 19.6 17.1 14.2 71 3.1 ENE 20 26 11 14 1021.1 1020.8 0.0
06/05:00am 19.6 16.8 14.2 71 3.1 ENE 22 26 12 14 1020.8 1020.5 0.0
06/04:30am 19.3 17.1 14.3 73 2.9 ENE 19 24 10 13 1020.5 1020.2 0.0
06/04:00am 19.5 16.0 14.5 73 2.9 ENE 26 32 14 17 1020.1 1019.8 0.0
06/03:30am 19.5 15.6 14.5 73 2.9 ENE 28 32 15 17 1019.8 1019.4 0.0
06/03:00am 19.5 15.6 14.3 72 3.0 ENE 28 33 15 18 1019.8 1019.4 0.0
06/02:30am 19.2 15.3 14.5 74 2.7 ENE 28 33 15 18 1019.9 1019.6 0.0
06/02:00am 19.6 16.0 14.2 71 3.1 ENE 26 32 14 17 1020.5 1020.2 0.0
06/01:30am 19.6 16.1 14.4 72 3.0 E 26 32 14 17 1021.0 1020.7 0.0
06/01:00am 19.6 15.7 13.3 67 3.6 ENE 26 30 14 16 1021.3 1021.0 0.0
06/12:30am 19.7 15.5 13.6 68 3.5 ENE 28 32 15 17 1021.4 1021.1 0.0
06/12:00am 19.7 14.7 12.2 62 4.2 ENE 30 35 16 19 1021.5 1021.2 0.0
 
Date/Time
EST
Temp
°C
App
Temp
°C
Dew
Point
°C
Rel
Hum
%
Delta-T
°C
Wind Press
QNH
hPa
Press
MSL
hPa
Rain since
9am
mm
Dir  Spd
km/h
Gust
km/h
Spd
kts
Gust
kts
05/11:30pm 19.6 15.4 13.5 68 3.5 ENE 28 32 15 17 1022.0 1021.7 0.0
05/11:00pm 19.6 15.5 12.8 65 3.8 E 26 30 14 16 1022.2 1021.9 0.0
05/10:30pm 19.7 16.0 12.7 64 4.0 E 24 30 13 16 1022.4 1022.1 0.0
05/10:00pm 19.6 15.0 12.4 63 4.0 E 28 32 15 17 1022.6 1022.3 0.0
05/09:30pm 19.7 15.1 12.2 62 4.2 ENE 28 32 15 17 1022.6 1022.3 0.0
05/09:00pm 19.9 16.2 11.4 58 4.7 ENE 22 26 12 14 1023.1 1022.8 0.0
05/08:30pm 19.8 15.6 11.0 57 4.8 E 24 28 13 15 1022.7 1022.4 0.0
05/08:00pm 19.9 16.0 12.2 61 4.3 ENE 24 30 13 16 1022.6 1022.3 0.0
05/07:30pm 19.8 15.8 11.8 60 4.5 ENE 24 30 13 16 1022.2 1021.9 0.0
05/07:00pm 19.8 15.4 11.6 59 4.5 E 26 32 14 17 1022.1 1021.8 0.0
05/06:30pm 19.8 15.4 11.8 60 4.5 ENE 26 30 14 16 1021.9 1021.6 0.0
05/06:00pm 19.8 15.7 12.8 64 4.0 E 26 30 14 16 1021.8 1021.5 0.0
05/05:30pm 19.8 15.2 12.3 62 4.2 E 28 32 15 17 1021.5 1021.2 0.0
05/05:00pm 20.0 15.1 12.5 62 4.2 E 30 35 16 19 1020.9 1020.6 0.0
05/04:30pm 20.3 17.3 12.5 61 4.4 E 20 28 11 15 1021.0 1020.7 0.0
05/04:00pm 20.4 17.9 12.4 60 4.5 ENE 17 22 9 12 1020.8 1020.5 0.0
05/03:30pm 20.8 19.0 13.3 62 4.3 E 15 20 8 11 1020.8 1020.5 0.0
05/03:00pm 21.4 19.1 13.1 59 4.7 E 17 20 9 11 1021.0 1020.7 0.0
05/02:30pm 21.6 19.4 13.2 58 4.8 ENE 17 22 9 12 1021.2 1020.9 0.0
05/02:00pm 21.3 18.3 12.7 58 4.9 ENE 20 24 11 13 1021.0 1020.7 0.0
05/01:30pm 21.8 19.4 13.7 60 4.7 ENE 19 24 10 13 1021.4 1021.1 0.0
05/01:00pm 21.5 18.0 13.4 60 4.7 ENE 24 30 13 16 1021.5 1021.2 0.0
05/12:30pm 22.1 19.1 11.8 52 5.8 E 19 22 10 12 1022.0 1021.7 0.0
05/12:00pm 21.7 18.6 11.7 53 5.6 E 19 24 10 13 1022.2 1021.9 0.0
05/11:30am 22.3 19.2 12.3 53 5.7 E 20 24 11 13 1022.6 1022.3 0.0
05/11:00am 22.1 19.3 13.2 57 5.1 ESE 20 28 11 15 1022.8 1022.5 0.0
05/10:30am 21.5 17.9 13.2 59 4.8 ESE 24 28 13 15 1023.0 1022.7 0.0
05/10:00am 20.7 16.0 13.2 62 4.3 E 30 35 16 19 1022.9 1022.6 0.0
05/09:30am 20.7 16.5 13.4 63 4.2 ESE 28 32 15 17 1022.8 1022.5 0.0
05/09:00am 21.5 17.7 13.7 61 4.5 E 26 32 14 17 1022.8 1022.5 0.0
05/08:30am 22.6 19.5 13.4 56 5.3 E 22 28 12 15 1022.9 1022.6 0.0
05/08:00am 19.7 14.4 13.2 66 3.7 E 33 41 18 22 1022.9 1022.6 0.0
05/07:30am 20.0 16.3 13.9 68 3.5 E 26 32 14 17 1022.9 1022.6 0.0
05/07:00am 19.9 15.6 13.1 65 3.9 E 28 32 15 17 1022.6 1022.3 0.0
05/06:30am 19.5 16.2 13.9 70 3.2 E 24 30 13 16 1022.0 1021.7 0.0
05/06:00am 19.2 15.8 13.8 71 3.1 E 24 30 13 16 1022.1 1021.8 0.0
05/05:30am 18.9 15.9 13.7 72 3.0 E 22 28 12 15 1021.9 1021.6 0.0
05/05:00am 18.5 15.3 13.1 71 3.0 E 22 24 12 13 1021.6 1021.3 0.0
05/04:30am 18.5 15.7 12.7 69 3.3 E 19 26 10 14 1020.9 1020.6 0.0
05/04:00am 18.3 15.3 12.5 69 3.2 E 20 24 11 13 1020.8 1020.5 0.0
05/03:30am 18.2 15.2 12.0 67 3.4 E 19 22 10 12 1020.7 1020.4 0.0
05/03:00am 18.1 15.3 11.4 65 3.7 ESE 17 22 9 12 1020.7 1020.4 0.0
05/02:30am 18.0 15.8 10.9 63 3.8 E 13 17 7 9 1020.8 1020.5 0.0
05/02:00am 18.3 16.0 10.4 60 4.2 ENE 13 19 7 10 1020.9 1020.6 0.0
05/01:30am 18.3 15.9 10.2 59 4.3 ENE 13 15 7 8 1021.0 1020.7 0.0
05/01:00am 18.0 15.5 9.6 58 4.4 ENE 13 15 7 8 1021.3 1021.0 0.0
05/12:30am 18.5 15.5 9.3 55 4.9 ENE 15 20 8 11 1021.5 1021.2 0.0
05/12:00am 18.4 15.4 10.8 61 4.1 ENE 17 22 9 12 1021.8 1021.5 0.0
 
Date/Time
EST
Temp
°C
App
Temp
°C
Dew
Point
°C
Rel
Hum
%
Delta-T
°C
Wind Press
QNH
hPa
Press
MSL
hPa
Rain since
9am
mm
Dir  Spd
km/h
Gust
km/h
Spd
kts
Gust
kts
04/11:30pm 18.6 15.1 10.9 61 4.2 ENE 20 26 11 14 1021.9 1021.6 0.0
04/11:00pm 18.5 15.1 11.1 62 4.0 E 20 26 11 14 1021.8 1021.5 0.0
04/10:30pm 18.6 14.0 10.9 61 4.2 E 26 30 14 16 1021.8 1021.5 0.0
04/10:00pm 18.7 14.5 11.0 61 4.2 E 24 30 13 16 1022.1 1021.8 0.0

Other formats

Comma delimited format used in spreadsheet applications
http://www.bom.gov.au/fwo/IDQ60801/IDQ60801.94584.axf

JavaScript Object Notation format (JSON) in row-major order
http://www.bom.gov.au/fwo/IDQ60801/IDQ60801.94584.json

Data quality

Most of these data are generated automatically and are frequently updated. Quality checks on data are not normally performed. It is possible for incorrect values to appear. Refer to information at About Latest Weather Observations and please check the disclaimer before using these data.